createdAt,value
2022-11-17T00:02:20.019Z,14.35
2022-11-17T00:04:47.939Z,14.50
2022-11-17T00:07:15.894Z,14.33
2022-11-17T00:09:43.702Z,14.32
2022-11-17T00:12:32.802Z,14.37
2022-11-17T00:15:01.121Z,14.40
2022-11-17T00:17:30.421Z,14.41
2022-11-17T00:20:15.882Z,14.44
2022-11-17T00:22:43.738Z,14.25
2022-11-17T00:25:11.621Z,14.64
2022-11-17T00:27:39.518Z,14.43
2022-11-17T00:30:08.773Z,14.39
2022-11-17T00:32:55.401Z,14.44
2022-11-17T00:35:23.290Z,14.37
2022-11-17T00:38:04.977Z,14.27
2022-11-17T00:40:32.829Z,14.26
2022-11-17T00:43:00.679Z,14.24
2022-11-17T00:45:28.523Z,14.03
2022-11-17T00:47:57.825Z,14.09
2022-11-17T00:50:25.751Z,13.95
2022-11-17T00:52:53.753Z,13.75
2022-11-17T00:55:21.639Z,13.82
2022-11-17T00:57:49.554Z,13.93
2022-11-17T01:00:17.670Z,13.88
2022-11-17T01:02:45.479Z,13.73
2022-11-17T01:05:14.879Z,13.76
2022-11-17T01:07:42.744Z,14.01
2022-11-17T01:10:11.056Z,13.94
2022-11-17T01:12:38.967Z,13.91
2022-11-17T01:15:07.771Z,13.71
2022-11-17T01:17:35.918Z,14.05
2022-11-17T01:20:03.984Z,14.04
2022-11-17T01:22:33.261Z,13.88
2022-11-17T01:25:01.129Z,14.04
2022-11-17T01:27:28.970Z,13.98
2022-11-17T01:29:56.883Z,13.91
2022-11-17T01:32:24.698Z,13.92
2022-11-17T01:34:52.552Z,14.06
2022-11-17T01:37:20.471Z,14.01
2022-11-17T01:39:50.772Z,13.98
2022-11-17T01:42:20.870Z,14.09
2022-11-17T01:45:00.317Z,14.10
2022-11-17T01:47:41.278Z,14.04
2022-11-17T01:50:23.486Z,13.82
2022-11-17T01:52:52.583Z,14.03
2022-11-17T01:55:23.442Z,14.19
2022-11-17T01:57:53.588Z,13.87
2022-11-17T02:00:21.567Z,13.95
2022-11-17T02:02:49.885Z,13.86
2022-11-17T02:05:24.424Z,13.94
2022-11-17T02:07:53.462Z,13.97
2022-11-17T02:10:23.069Z,13.83
2022-11-17T02:12:53.262Z,13.72
2022-11-17T02:15:21.950Z,13.53
2022-11-17T02:17:50.586Z,13.56
2022-11-17T02:20:22.785Z,13.54
2022-11-17T02:23:22.985Z,13.73
2022-11-17T02:26:22.883Z,13.73
2022-11-17T02:28:57.747Z,13.82
2022-11-17T02:31:33.246Z,13.41
2022-11-17T02:34:07.793Z,13.14
2022-11-17T02:36:40.232Z,13.12
2022-11-17T02:39:12.970Z,13.29
2022-11-17T02:41:46.787Z,13.06
2022-11-17T02:44:17.815Z,12.84
2022-11-17T02:46:47.003Z,12.85
2022-11-17T02:49:19.801Z,13.26
2022-11-17T02:51:49.611Z,13.18
2022-11-17T02:54:17.956Z,13.15
2022-11-17T02:56:45.767Z,12.92
2022-11-17T02:59:16.741Z,13.15
2022-11-17T03:02:15.455Z,13.02
2022-11-17T03:04:50.680Z,12.92
2022-11-17T03:07:31.447Z,13.05
2022-11-17T03:10:07.549Z,12.97
2022-11-17T03:12:43.355Z,12.82
2022-11-17T03:15:20.803Z,12.90
2022-11-17T03:17:53.777Z,12.65
2022-11-17T03:20:24.619Z,12.73
2022-11-17T03:22:57.621Z,12.68
2022-11-17T03:25:27.371Z,12.75
2022-11-17T03:27:58.852Z,12.63
2022-11-17T03:30:29.950Z,12.48
2022-11-17T03:33:06.399Z,12.45
2022-11-17T03:35:37.072Z,12.50
2022-11-17T03:38:08.896Z,12.59
2022-11-17T03:40:37.353Z,12.55
2022-11-17T03:43:07.450Z,12.60
2022-11-17T03:45:39.730Z,12.42
2022-11-17T03:48:14.600Z,12.38
2022-11-17T03:50:45.119Z,12.50
2022-11-17T03:53:13.082Z,12.59
2022-11-17T03:55:48.077Z,12.33
2022-11-17T03:58:18.865Z,12.44
2022-11-17T04:00:50.599Z,12.43
2022-11-17T04:03:18.525Z,12.63
2022-11-17T04:05:46.745Z,12.30
2022-11-17T04:08:14.669Z,12.31
2022-11-17T04:10:56.422Z,12.39
2022-11-17T04:13:41.791Z,12.31
2022-11-17T04:16:11.118Z,12.36
2022-11-17T04:18:38.969Z,12.43
2022-11-17T04:21:07.112Z,12.58
2022-11-17T04:23:35.208Z,12.39
2022-11-17T04:26:20.880Z,12.19
2022-11-17T04:28:50.474Z,12.41
2022-11-17T04:31:21.585Z,12.66
2022-11-17T04:33:50.649Z,12.88
2022-11-17T04:36:20.333Z,12.95
2022-11-17T04:38:50.052Z,12.82
2022-11-17T04:41:36.633Z,12.40
2022-11-17T04:44:05.543Z,12.44
2022-11-17T04:46:35.996Z,12.69
2022-11-17T04:49:04.450Z,12.66
2022-11-17T04:51:32.833Z,12.60
2022-11-17T04:54:01.747Z,12.62
2022-11-17T04:56:30.019Z,12.60
2022-11-17T04:58:58.408Z,12.55
2022-11-17T05:01:27.989Z,12.57
2022-11-17T05:03:58.700Z,12.58
2022-11-17T05:06:28.236Z,12.69
2022-11-17T05:08:57.193Z,12.84
2022-11-17T05:11:43.428Z,12.74
2022-11-17T05:14:11.788Z,12.94
2022-11-17T05:16:57.720Z,12.73
2022-11-17T05:19:28.105Z,12.93
2022-11-17T05:21:56.340Z,12.98
2022-11-17T05:24:23.329Z,12.69
2022-11-17T05:26:51.615Z,12.61
2022-11-17T05:29:21.737Z,12.54
2022-11-17T05:31:50.035Z,12.63
2022-11-17T05:34:18.448Z,12.65
2022-11-17T05:36:47.722Z,12.69
2022-11-17T05:39:16.323Z,12.60
2022-11-17T05:41:44.224Z,12.51
2022-11-17T05:44:12.077Z,12.61
2022-11-17T05:46:39.873Z,12.67
2022-11-17T05:49:07.654Z,12.60
2022-11-17T05:51:36.275Z,12.68
2022-11-17T05:54:05.621Z,12.91
2022-11-17T05:56:37.160Z,12.95
2022-11-17T05:59:15.538Z,13.03
2022-11-17T06:01:46.670Z,12.74
2022-11-17T06:04:15.743Z,13.09
2022-11-17T06:06:43.698Z,13.18
2022-11-17T06:09:13.158Z,13.21
2022-11-17T06:11:41.048Z,13.21
2022-11-17T06:14:08.909Z,13.36
2022-11-17T06:16:41.840Z,13.35
2022-11-17T06:19:12.736Z,13.32
2022-11-17T06:22:09.999Z,13.26
2022-11-17T06:24:30.114Z,13.08
2022-11-17T06:26:57.974Z,13.12
2022-11-17T06:29:26.064Z,12.96
2022-11-17T06:31:55.100Z,12.94
2022-11-17T06:34:23.047Z,12.93
2022-11-17T06:36:50.964Z,12.92
2022-11-17T06:39:18.805Z,13.06
2022-11-17T06:41:48.092Z,12.85
2022-11-17T06:44:16.010Z,12.81
2022-11-17T06:46:48.810Z,12.76
2022-11-17T06:49:17.421Z,13.06
2022-11-17T06:51:45.756Z,12.88
2022-11-17T06:54:14.876Z,12.61
2022-11-17T06:56:43.702Z,12.69
2022-11-17T06:59:14.291Z,12.78
2022-11-17T07:01:42.534Z,12.76
2022-11-17T07:04:10.547Z,12.90
2022-11-17T07:06:38.685Z,12.79
2022-11-17T07:09:06.630Z,12.60
2022-11-17T07:11:36.263Z,12.84
2022-11-17T07:14:04.313Z,12.74
2022-11-17T07:16:33.611Z,13.08
2022-11-17T07:19:03.730Z,13.19
2022-11-17T07:21:31.858Z,13.00
2022-11-17T07:23:59.944Z,13.01
2022-11-17T07:26:27.857Z,12.79
2022-11-17T07:28:55.745Z,12.75
2022-11-17T07:31:23.753Z,12.67
2022-11-17T07:33:54.347Z,12.85
2022-11-17T07:36:22.269Z,12.78
2022-11-17T07:38:50.205Z,12.73
2022-11-17T07:41:18.227Z,16.49
2022-11-17T07:43:46.189Z,14.49
2022-11-17T07:46:15.901Z,13.75
2022-11-17T07:48:44.601Z,13.38
2022-11-17T07:51:14.178Z,13.61
2022-11-17T07:53:42.160Z,13.38
2022-11-17T07:56:11.496Z,13.57
2022-11-17T07:58:39.970Z,13.89
2022-11-17T08:01:08.536Z,14.13
2022-11-17T08:03:36.553Z,14.04
2022-11-17T08:06:04.960Z,14.05
2022-11-17T08:08:34.816Z,14.01
2022-11-17T08:11:05.157Z,13.92
2022-11-17T08:13:33.092Z,13.82
2022-11-17T08:16:01.164Z,13.80
2022-11-17T08:18:30.174Z,13.67
2022-11-17T08:21:03.352Z,13.42
2022-11-17T08:23:31.239Z,13.70
2022-11-17T08:26:00.712Z,13.50
2022-11-17T08:28:28.669Z,13.49
2022-11-17T08:30:56.883Z,13.64
2022-11-17T08:33:24.773Z,13.44
2022-11-17T08:35:53.104Z,13.27
2022-11-17T08:38:20.963Z,13.31
2022-11-17T08:40:48.843Z,13.55
2022-11-17T08:43:18.150Z,13.46
2022-11-17T08:45:46.007Z,13.44
2022-11-17T08:48:13.877Z,13.49
2022-11-17T08:50:41.817Z,13.53
2022-11-17T08:53:14.227Z,13.50
2022-11-17T08:55:42.520Z,13.57
2022-11-17T08:58:10.602Z,13.54
2022-11-17T09:00:39.945Z,13.61
2022-11-17T09:03:08.692Z,13.56
2022-11-17T09:05:39.842Z,13.16
2022-11-17T09:08:37.852Z,13.07
2022-11-17T09:10:56.078Z,13.51
2022-11-17T09:13:23.983Z,13.68
2022-11-17T09:15:53.265Z,13.73
2022-11-17T09:18:21.120Z,13.80
2022-11-17T09:20:49.022Z,13.93
2022-11-17T09:23:16.920Z,13.73
2022-11-17T09:25:44.758Z,13.86
2022-11-17T09:28:12.732Z,13.78
2022-11-17T09:30:40.553Z,13.71
2022-11-17T09:33:09.813Z,13.55
2022-11-17T09:35:37.913Z,13.85
2022-11-17T09:38:05.809Z,13.65
2022-11-17T09:40:38.029Z,13.81
2022-11-17T09:43:07.857Z,13.98
2022-11-17T09:45:38.755Z,14.24
2022-11-17T09:48:39.674Z,14.43
2022-11-17T09:51:02.966Z,14.38
2022-11-17T09:53:37.875Z,14.61
2022-11-17T09:56:08.852Z,14.61
2022-11-17T09:58:41.658Z,14.94
2022-11-17T10:01:11.984Z,14.86
2022-11-17T10:03:46.180Z,14.72
2022-11-17T10:06:17.311Z,14.63
2022-11-17T10:08:49.739Z,14.83
2022-11-17T10:11:34.103Z,14.87
2022-11-17T10:14:13.581Z,15.12
2022-11-17T10:16:43.746Z,15.42
2022-11-17T10:19:17.979Z,15.27
2022-11-17T10:21:46.276Z,15.27
2022-11-17T10:24:34.215Z,14.70
2022-11-17T10:27:03.262Z,14.74
2022-11-17T10:29:31.288Z,14.88
2022-11-17T10:31:59.829Z,15.11
2022-11-17T10:34:40.656Z,15.17
2022-11-17T10:37:25.535Z,15.07
2022-11-17T10:40:07.952Z,14.73
2022-11-17T10:42:35.802Z,15.38
2022-11-17T10:45:04.173Z,15.46
2022-11-17T10:47:34.648Z,15.28
2022-11-17T10:50:24.882Z,15.69
2022-11-17T10:52:54.203Z,15.67
2022-11-17T10:55:27.813Z,15.55
2022-11-17T10:57:58.513Z,15.41
2022-11-17T11:00:30.086Z,15.35
2022-11-17T11:03:06.698Z,16.07
2022-11-17T11:05:35.953Z,15.77
2022-11-17T11:08:17.358Z,15.70
2022-11-17T11:10:48.497Z,15.58
2022-11-17T11:13:20.989Z,15.90
2022-11-17T11:15:48.914Z,16.48
2022-11-17T11:18:18.143Z,16.12
2022-11-17T11:20:53.254Z,16.41
2022-11-17T11:23:28.070Z,15.91
2022-11-17T11:25:59.760Z,16.62
2022-11-17T11:28:38.091Z,16.54
2022-11-17T11:31:16.238Z,16.66
2022-11-17T11:33:48.853Z,16.66
2022-11-17T11:36:27.783Z,15.88
2022-11-17T11:39:02.105Z,15.60
2022-11-17T11:41:45.543Z,15.47
2022-11-17T11:44:33.686Z,15.61
2022-11-17T11:47:07.313Z,15.90
2022-11-17T11:49:39.728Z,15.63
2022-11-17T11:52:22.618Z,16.11
2022-11-17T11:54:53.643Z,16.07
2022-11-17T11:57:27.147Z,15.50
2022-11-17T12:00:03.569Z,15.65
2022-11-17T12:02:50.149Z,15.68
2022-11-17T12:05:23.072Z,15.87
2022-11-17T12:07:55.621Z,15.93
2022-11-17T12:10:30.026Z,16.17
2022-11-17T12:12:58.409Z,17.14
2022-11-17T12:15:35.300Z,17.47
2022-11-17T12:18:06.271Z,17.72
2022-11-17T12:20:56.951Z,16.69
2022-11-17T12:23:58.371Z,18.43
2022-11-17T12:26:28.223Z,17.13
2022-11-17T12:29:25.634Z,16.56
2022-11-17T12:31:54.600Z,16.22
2022-11-17T12:34:25.111Z,16.41
2022-11-17T12:37:21.747Z,16.61
2022-11-17T12:40:05.798Z,16.82
2022-11-17T12:42:35.266Z,17.16
2022-11-17T12:45:08.330Z,17.78
2022-11-17T12:47:38.465Z,19.67
2022-11-17T12:50:43.237Z,19.60
2022-11-17T12:53:49.693Z,19.76
2022-11-17T12:56:44.609Z,21.62
2022-11-17T12:59:31.766Z,20.11
2022-11-17T13:02:06.701Z,19.88
2022-11-17T13:04:37.281Z,18.59
2022-11-17T13:07:06.807Z,21.23
2022-11-17T13:09:36.428Z,19.70
2022-11-17T13:12:07.440Z,17.96
2022-11-17T13:14:36.540Z,17.26
2022-11-17T13:17:04.754Z,16.82
2022-11-17T13:19:37.885Z,16.44
2022-11-17T13:22:13.750Z,16.76
2022-11-17T13:24:43.859Z,16.66
2022-11-17T13:27:23.216Z,16.00
2022-11-17T13:29:51.494Z,16.02
2022-11-17T13:32:21.449Z,15.84
2022-11-17T13:34:51.274Z,15.81
2022-11-17T13:37:21.529Z,15.69
2022-11-17T13:39:57.101Z,15.51
2022-11-17T13:42:28.632Z,15.82
2022-11-17T13:44:57.747Z,15.57
2022-11-17T13:47:29.459Z,15.47
2022-11-17T13:49:57.294Z,15.43
2022-11-17T13:52:38.004Z,15.68
2022-11-17T13:55:11.619Z,15.76
2022-11-17T13:57:41.007Z,15.61
2022-11-17T14:00:17.998Z,15.82
2022-11-17T14:02:53.218Z,15.82
2022-11-17T14:05:23.897Z,15.65
2022-11-17T14:07:52.988Z,15.66
2022-11-17T14:10:33.046Z,15.92
2022-11-17T14:13:20.290Z,15.79
2022-11-17T14:15:53.773Z,15.57
2022-11-17T14:18:27.231Z,15.30
2022-11-17T14:21:09.926Z,15.65
2022-11-17T14:23:37.933Z,15.28
2022-11-17T14:26:06.129Z,15.40
2022-11-17T14:28:35.352Z,15.52
2022-11-17T14:31:03.218Z,15.21
2022-11-17T14:33:31.086Z,15.40
2022-11-17T14:36:00.264Z,15.43
2022-11-17T14:38:28.580Z,15.71
2022-11-17T14:40:56.541Z,15.67
2022-11-17T14:43:24.468Z,15.47
2022-11-17T14:45:54.041Z,15.43
2022-11-17T14:48:22.357Z,15.16
2022-11-17T14:50:57.196Z,15.07
2022-11-17T14:53:25.575Z,15.14
2022-11-17T14:55:53.692Z,15.24
2022-11-17T14:58:21.476Z,15.05
2022-11-17T15:00:49.643Z,15.40
2022-11-17T15:03:18.926Z,15.35
2022-11-17T15:05:47.154Z,15.52
2022-11-17T15:08:15.275Z,15.40
2022-11-17T15:10:46.820Z,15.29
2022-11-17T15:13:14.687Z,15.42
2022-11-17T15:15:42.580Z,15.19
2022-11-17T15:18:12.087Z,15.11
2022-11-17T15:20:41.344Z,15.23
2022-11-17T15:23:09.248Z,14.95
2022-11-17T15:25:38.809Z,14.96
2022-11-17T15:28:06.743Z,14.94
2022-11-17T15:30:34.642Z,15.03
2022-11-17T15:33:02.882Z,14.78
2022-11-17T15:35:30.719Z,14.90
2022-11-17T15:37:59.997Z,14.80
2022-11-17T15:40:27.871Z,14.61
2022-11-17T15:42:55.817Z,14.35
2022-11-17T15:45:23.648Z,14.58
2022-11-17T15:47:51.514Z,14.74
2022-11-17T15:50:19.604Z,14.56
2022-11-17T15:53:04.469Z,14.63
2022-11-17T15:55:34.681Z,14.68
2022-11-17T15:58:02.518Z,14.41
2022-11-17T16:00:30.408Z,14.67
2022-11-17T16:02:58.876Z,14.72
2022-11-17T16:05:26.880Z,14.93
2022-11-17T16:07:55.726Z,14.76
2022-11-17T16:10:23.618Z,15.05
2022-11-17T16:12:52.984Z,14.89
2022-11-17T16:15:20.979Z,14.97
2022-11-17T16:17:49.307Z,15.07
2022-11-17T16:20:18.500Z,14.98
2022-11-17T16:22:46.423Z,15.17
2022-11-17T16:25:14.538Z,15.03
2022-11-17T16:27:42.330Z,14.88
2022-11-17T16:30:13.058Z,15.06
2022-11-17T16:32:41.305Z,14.92
2022-11-17T16:35:09.357Z,14.98
2022-11-17T16:37:37.723Z,14.93
2022-11-17T16:40:06.308Z,14.90
2022-11-17T16:42:34.200Z,15.05
2022-11-17T16:45:02.067Z,15.10
2022-11-17T16:47:31.299Z,15.08
2022-11-17T16:49:59.669Z,14.99
2022-11-17T16:52:27.705Z,15.02
2022-11-17T16:54:58.135Z,14.99
2022-11-17T16:57:30.094Z,15.11
2022-11-17T16:59:58.000Z,15.12
2022-11-17T17:02:26.045Z,15.04
2022-11-17T17:04:55.359Z,14.62
2022-11-17T17:07:23.353Z,14.46
2022-11-17T17:09:52.445Z,14.25
2022-11-17T17:12:20.341Z,14.50
2022-11-17T17:14:48.231Z,14.16
2022-11-17T17:17:16.042Z,14.11
2022-11-17T17:19:43.905Z,14.40
2022-11-17T17:22:13.180Z,14.30
2022-11-17T17:24:41.150Z,14.24
2022-11-17T17:27:08.996Z,14.30
2022-11-17T17:29:36.871Z,14.08
2022-11-17T17:32:04.954Z,14.10
2022-11-17T17:34:32.834Z,13.92
2022-11-17T17:37:00.742Z,14.10
2022-11-17T17:39:30.036Z,14.11
2022-11-17T17:41:58.119Z,14.22
2022-11-17T17:44:25.999Z,14.13
2022-11-17T17:46:53.861Z,14.10
2022-11-17T17:49:21.737Z,13.99
2022-11-17T17:51:49.611Z,13.54
2022-11-17T17:54:19.143Z,13.84
2022-11-17T17:56:48.716Z,13.88
2022-11-17T17:59:17.137Z,13.93
2022-11-17T18:01:47.701Z,13.67
2022-11-17T18:04:17.088Z,13.93
2022-11-17T18:06:47.661Z,14.02
2022-11-17T18:09:19.001Z,14.04
2022-11-17T18:11:50.069Z,13.93
2022-11-17T18:14:20.546Z,14.00
2022-11-17T18:16:48.546Z,13.86
2022-11-17T18:19:16.871Z,13.78
2022-11-17T18:21:45.020Z,13.95
2022-11-17T18:24:13.131Z,13.88
2022-11-17T18:26:41.659Z,13.81
2022-11-17T18:29:14.828Z,13.84
2022-11-17T18:31:43.391Z,13.81
2022-11-17T18:34:15.911Z,13.91
2022-11-17T18:36:43.912Z,13.83
2022-11-17T18:39:12.106Z,13.74
2022-11-17T18:41:40.009Z,13.73
2022-11-17T18:44:07.903Z,13.54
2022-11-17T18:46:37.023Z,13.58
2022-11-17T18:49:04.882Z,13.75
2022-11-17T18:51:34.152Z,13.27
2022-11-17T18:54:02.746Z,13.27
2022-11-17T18:56:33.768Z,13.73
2022-11-17T18:59:01.749Z,13.74
2022-11-17T19:01:30.734Z,13.69
2022-11-17T19:04:01.496Z,13.81
2022-11-17T19:06:29.452Z,13.66
2022-11-17T19:08:59.616Z,13.42
2022-11-17T19:11:28.461Z,13.44
2022-11-17T19:13:56.333Z,13.15
2022-11-17T19:16:25.730Z,13.32
2022-11-17T19:18:55.723Z,13.04
2022-11-17T19:21:26.469Z,13.28
2022-11-17T19:23:55.847Z,13.13
2022-11-17T19:26:25.295Z,13.16
2022-11-17T19:28:56.635Z,13.18
2022-11-17T19:31:25.010Z,13.00
2022-11-17T19:33:53.141Z,12.93
2022-11-17T19:36:22.174Z,13.01
2022-11-17T19:38:52.383Z,12.93
2022-11-17T19:41:22.255Z,13.03
2022-11-17T19:43:53.459Z,13.10
2022-11-17T19:46:21.985Z,12.80
2022-11-17T19:48:50.011Z,13.04
2022-11-17T19:51:21.155Z,13.25
2022-11-17T19:53:51.625Z,13.08
2022-11-17T19:56:20.072Z,13.03
2022-11-17T19:58:48.267Z,13.20
2022-11-17T20:01:17.144Z,12.93
2022-11-17T20:03:46.211Z,12.97
2022-11-17T20:06:15.746Z,12.96
2022-11-17T20:08:43.832Z,13.07
2022-11-17T20:11:14.365Z,13.09
2022-11-17T20:13:42.574Z,13.18
2022-11-17T20:16:12.912Z,13.11
2022-11-17T20:18:41.656Z,13.31
2022-11-17T20:21:10.121Z,13.13
2022-11-17T20:23:39.287Z,13.44
2022-11-17T20:26:08.068Z,13.31
2022-11-17T20:28:38.007Z,13.43
2022-11-17T20:31:09.945Z,13.55
2022-11-17T20:33:38.132Z,13.42
2022-11-17T20:36:07.020Z,13.32
2022-11-17T20:38:35.880Z,13.37
2022-11-17T20:41:04.330Z,13.35
2022-11-17T20:43:32.614Z,13.24
2022-11-17T20:46:02.470Z,13.16
2022-11-17T20:48:31.557Z,13.62
2022-11-17T20:51:00.004Z,13.33
2022-11-17T20:53:28.101Z,13.37
2022-11-17T20:55:56.458Z,13.31
2022-11-17T20:58:24.684Z,13.22
2022-11-17T21:00:52.806Z,13.12
2022-11-17T21:03:22.462Z,13.39
2022-11-17T21:05:58.361Z,13.57
2022-11-17T21:08:27.821Z,13.31
2022-11-17T21:10:56.514Z,13.17
2022-11-17T21:13:24.465Z,13.04
2022-11-17T21:16:06.499Z,13.30
2022-11-17T21:18:36.382Z,13.25
2022-11-17T21:21:08.803Z,13.22
2022-11-17T21:23:37.258Z,13.03
2022-11-17T21:26:06.178Z,13.14
2022-11-17T21:28:34.221Z,13.18
2022-11-17T21:31:07.768Z,13.10
2022-11-17T21:33:38.094Z,13.14
2022-11-17T21:36:08.079Z,13.34
2022-11-17T21:38:36.024Z,13.31
2022-11-17T21:41:04.456Z,13.34
2022-11-17T21:43:32.561Z,13.30
2022-11-17T21:46:03.897Z,13.22
2022-11-17T21:48:31.885Z,13.15
2022-11-17T21:51:01.214Z,13.12
2022-11-17T21:53:29.841Z,13.29
2022-11-17T21:56:01.640Z,13.20
2022-11-17T21:58:29.585Z,13.26
2022-11-17T22:00:57.829Z,13.13
2022-11-17T22:03:25.835Z,13.13
2022-11-17T22:05:58.019Z,13.05
2022-11-17T22:08:30.248Z,13.49
2022-11-17T22:10:58.070Z,13.50
2022-11-17T22:13:25.837Z,13.41
2022-11-17T22:15:53.885Z,13.52
2022-11-17T22:18:21.770Z,13.54
2022-11-17T22:20:51.867Z,13.74
2022-11-17T22:23:19.861Z,13.65
2022-11-17T22:25:55.801Z,13.89
2022-11-17T22:28:24.691Z,13.68
2022-11-17T22:30:53.578Z,13.71
2022-11-17T22:33:22.077Z,13.94
2022-11-17T22:35:50.245Z,14.02
2022-11-17T22:38:18.431Z,13.76
2022-11-17T22:40:46.296Z,13.95
2022-11-17T22:43:15.802Z,13.74
2022-11-17T22:45:43.906Z,13.71
2022-11-17T22:48:11.897Z,13.39
2022-11-17T22:50:39.950Z,13.16
2022-11-17T22:53:07.844Z,12.86
2022-11-17T22:55:35.818Z,13.07
2022-11-17T22:58:04.009Z,13.05
2022-11-17T23:00:33.325Z,13.19
2022-11-17T23:03:01.216Z,13.19
2022-11-17T23:05:29.268Z,13.06
2022-11-17T23:07:57.161Z,13.07
2022-11-17T23:10:25.415Z,13.08
2022-11-17T23:12:53.377Z,13.34
2022-11-17T23:15:21.342Z,13.12
2022-11-17T23:17:50.842Z,13.32
2022-11-17T23:20:18.842Z,12.85
2022-11-17T23:22:46.827Z,12.85
2022-11-17T23:25:15.108Z,12.47
2022-11-17T23:27:43.027Z,12.69
2022-11-17T23:30:11.827Z,12.79
2022-11-17T23:32:39.734Z,12.54
2022-11-17T23:35:10.189Z,12.85
2022-11-17T23:37:38.137Z,12.66
2022-11-17T23:40:06.875Z,12.72
2022-11-17T23:42:40.141Z,12.68
2022-11-17T23:45:11.877Z,12.61
2022-11-17T23:47:39.921Z,12.27
2022-11-17T23:50:09.920Z,11.98
2022-11-17T23:52:37.758Z,12.17
2022-11-17T23:55:06.105Z,12.40
2022-11-17T23:57:33.941Z,12.23
